sensor_id;sensor_type;location;lat;lon;timestamp;P1;durP1;ratioP1;P2;durP2;ratioP2
74044;SDS011;62389;51.412;5.436;2023-08-17T00:02:12;4.78;;;1.95;;
74044;SDS011;62389;51.412;5.436;2023-08-17T00:15:57;4.60;;;1.95;;
74044;SDS011;62389;51.412;5.436;2023-08-17T00:18:22;5.03;;;2.30;;
74044;SDS011;62389;51.412;5.436;2023-08-17T00:20:48;5.22;;;2.00;;
74044;SDS011;62389;51.412;5.436;2023-08-17T00:23:13;6.00;;;2.33;;
74044;SDS011;62389;51.412;5.436;2023-08-17T00:25:38;4.22;;;2.00;;
74044;SDS011;62389;51.412;5.436;2023-08-17T00:28:04;3.45;;;2.30;;
74044;SDS011;62389;51.412;5.436;2023-08-17T00:30:30;2.88;;;1.95;;
74044;SDS011;62389;51.412;5.436;2023-08-17T00:32:55;5.00;;;2.00;;
74044;SDS011;62389;51.412;5.436;2023-08-17T00:35:20;4.75;;;2.05;;
74044;SDS011;62389;51.412;5.436;2023-08-17T00:37:46;5.90;;;2.70;;
74044;SDS011;62389;51.412;5.436;2023-08-17T00:40:11;4.78;;;2.10;;
74044;SDS011;62389;51.412;5.436;2023-08-17T00:42:37;3.70;;;2.25;;
74044;SDS011;62389;51.412;5.436;2023-08-17T00:45:02;4.93;;;1.83;;
74044;SDS011;62389;51.412;5.436;2023-08-17T00:47:27;5.13;;;2.03;;
74044;SDS011;62389;51.412;5.436;2023-08-17T00:49:53;5.40;;;2.35;;
74044;SDS011;62389;51.412;5.436;2023-08-17T00:52:19;3.50;;;2.20;;
74044;SDS011;62389;51.412;5.436;2023-08-17T00:54:44;4.30;;;2.15;;
74044;SDS011;62389;51.412;5.436;2023-08-17T00:57:09;4.20;;;2.20;;
74044;SDS011;62389;51.412;5.436;2023-08-17T00:59:35;4.25;;;2.15;;
74044;SDS011;62389;51.412;5.436;2023-08-17T01:02:01;5.15;;;2.25;;
74044;SDS011;62389;51.412;5.436;2023-08-17T01:04:27;4.18;;;2.40;;
74044;SDS011;62389;51.412;5.436;2023-08-17T01:06:52;5.25;;;2.35;;
74044;SDS011;62389;51.412;5.436;2023-08-17T01:09:17;3.65;;;2.20;;
74044;SDS011;62389;51.412;5.436;2023-08-17T01:11:47;6.05;;;2.40;;
74044;SDS011;62389;51.412;5.436;2023-08-17T01:14:20;6.05;;;2.13;;
74044;SDS011;62389;51.412;5.436;2023-08-17T01:19:59;5.10;;;2.00;;
74044;SDS011;62389;51.412;5.436;2023-08-17T01:22:25;4.68;;;2.58;;
74044;SDS011;62389;51.412;5.436;2023-08-17T01:24:55;3.58;;;2.17;;
74044;SDS011;62389;51.412;5.436;2023-08-17T01:27:22;4.97;;;2.40;;
74044;SDS011;62389;51.412;5.436;2023-08-17T01:29:49;4.45;;;2.10;;
74044;SDS011;62389;51.412;5.436;2023-08-17T01:32:16;4.10;;;2.05;;
74044;SDS011;62389;51.412;5.436;2023-08-17T01:34:54;3.30;;;2.10;;
74044;SDS011;62389;51.412;5.436;2023-08-17T01:37:23;5.40;;;2.17;;
74044;SDS011;62389;51.412;5.436;2023-08-17T01:39:54;7.50;;;2.30;;
74044;SDS011;62389;51.412;5.436;2023-08-17T01:42:22;5.88;;;2.10;;
74044;SDS011;62389;51.412;5.436;2023-08-17T01:44:49;3.53;;;2.03;;
74044;SDS011;62389;51.412;5.436;2023-08-17T01:47:14;4.30;;;2.03;;
74044;SDS011;62389;51.412;5.436;2023-08-17T01:49:40;3.92;;;2.10;;
74044;SDS011;62389;51.412;5.436;2023-08-17T01:52:05;3.05;;;2.17;;
74044;SDS011;62389;51.412;5.436;2023-08-17T01:54:31;4.80;;;2.50;;
74044;SDS011;62389;51.412;5.436;2023-08-17T01:56:56;4.53;;;2.20;;
74044;SDS011;62389;51.412;5.436;2023-08-17T01:59:21;6.13;;;2.00;;
74044;SDS011;62389;51.412;5.436;2023-08-17T02:01:47;4.78;;;2.30;;
74044;SDS011;62389;51.412;5.436;2023-08-17T02:04:12;4.80;;;2.22;;
74044;SDS011;62389;51.412;5.436;2023-08-17T02:06:37;3.53;;;2.28;;
74044;SDS011;62389;51.412;5.436;2023-08-17T02:09:03;5.68;;;2.20;;
74044;SDS011;62389;51.412;5.436;2023-08-17T02:11:28;4.18;;;2.30;;
74044;SDS011;62389;51.412;5.436;2023-08-17T02:13:53;3.05;;;2.08;;
74044;SDS011;62389;51.412;5.436;2023-08-17T02:16:19;4.43;;;2.50;;
74044;SDS011;62389;51.412;5.436;2023-08-17T02:18:44;8.48;;;3.30;;
74044;SDS011;62389;51.412;5.436;2023-08-17T02:21:09;5.05;;;2.40;;
74044;SDS011;62389;51.412;5.436;2023-08-17T02:23:35;5.63;;;2.80;;
74044;SDS011;62389;51.412;5.436;2023-08-17T02:26:00;3.28;;;2.25;;
74044;SDS011;62389;51.412;5.436;2023-08-17T02:28:26;5.50;;;2.30;;
74044;SDS011;62389;51.412;5.436;2023-08-17T02:30:55;4.05;;;2.35;;
74044;SDS011;62389;51.412;5.436;2023-08-17T02:33:21;4.43;;;2.20;;
74044;SDS011;62389;51.412;5.436;2023-08-17T02:35:50;11.57;;;2.60;;
74044;SDS011;62389;51.412;5.436;2023-08-17T02:38:16;6.18;;;2.40;;
74044;SDS011;62389;51.412;5.436;2023-08-17T02:40:42;6.43;;;2.35;;
74044;SDS011;62389;51.412;5.436;2023-08-17T02:43:07;4.70;;;2.22;;
74044;SDS011;62389;51.412;5.436;2023-08-17T02:45:33;8.00;;;2.20;;
74044;SDS011;62389;51.412;5.436;2023-08-17T02:47:59;6.05;;;2.50;;
74044;SDS011;62389;51.412;5.436;2023-08-17T02:50:24;3.20;;;2.17;;
74044;SDS011;62389;51.412;5.436;2023-08-17T02:52:50;7.35;;;2.40;;
74044;SDS011;62389;51.412;5.436;2023-08-17T02:55:15;5.30;;;2.92;;
74044;SDS011;62389;51.412;5.436;2023-08-17T02:57:41;6.18;;;2.70;;
74044;SDS011;62389;51.412;5.436;2023-08-17T03:00:06;4.30;;;2.83;;
74044;SDS011;62389;51.412;5.436;2023-08-17T03:02:32;5.85;;;2.45;;
74044;SDS011;62389;51.412;5.436;2023-08-17T03:04:57;4.75;;;2.60;;
74044;SDS011;62389;51.412;5.436;2023-08-17T03:07:23;4.57;;;2.40;;
74044;SDS011;62389;51.412;5.436;2023-08-17T03:09:48;5.45;;;2.40;;
74044;SDS011;62389;51.412;5.436;2023-08-17T03:12:13;4.43;;;2.25;;
74044;SDS011;62389;51.412;5.436;2023-08-17T03:14:39;4.80;;;2.67;;
74044;SDS011;62389;51.412;5.436;2023-08-17T03:17:04;6.40;;;2.45;;
74044;SDS011;62389;51.412;5.436;2023-08-17T03:19:29;5.60;;;2.42;;
74044;SDS011;62389;51.412;5.436;2023-08-17T03:21:55;5.03;;;2.78;;
74044;SDS011;62389;51.412;5.436;2023-08-17T03:24:20;5.60;;;2.60;;
74044;SDS011;62389;51.412;5.436;2023-08-17T03:26:45;6.88;;;2.75;;
74044;SDS011;62389;51.412;5.436;2023-08-17T03:29:11;5.35;;;2.83;;
74044;SDS011;62389;51.412;5.436;2023-08-17T03:31:36;3.60;;;2.60;;
74044;SDS011;62389;51.412;5.436;2023-08-17T03:34:02;7.03;;;2.92;;
74044;SDS011;62389;51.412;5.436;2023-08-17T03:36:27;5.88;;;2.50;;
74044;SDS011;62389;51.412;5.436;2023-08-17T03:38:52;8.43;;;2.75;;
74044;SDS011;62389;51.412;5.436;2023-08-17T03:41:18;4.13;;;2.58;;
74044;SDS011;62389;51.412;5.436;2023-08-17T03:43:44;4.63;;;2.33;;
74044;SDS011;62389;51.412;5.436;2023-08-17T03:46:09;5.22;;;2.90;;
74044;SDS011;62389;51.412;5.436;2023-08-17T03:48:34;5.47;;;2.58;;
74044;SDS011;62389;51.412;5.436;2023-08-17T03:51:00;9.07;;;2.50;;
74044;SDS011;62389;51.412;5.436;2023-08-17T03:53:26;4.10;;;2.72;;
74044;SDS011;62389;51.412;5.436;2023-08-17T03:55:52;5.28;;;2.30;;
74044;SDS011;62389;51.412;5.436;2023-08-17T03:58:17;5.40;;;2.20;;
74044;SDS011;62389;51.412;5.436;2023-08-17T04:00:50;6.00;;;2.55;;
74044;SDS011;62389;51.412;5.436;2023-08-17T04:03:16;3.75;;;2.15;;
74044;SDS011;62389;51.412;5.436;2023-08-17T04:05:41;7.57;;;2.30;;
74044;SDS011;62389;51.412;5.436;2023-08-17T04:08:07;5.45;;;2.33;;
74044;SDS011;62389;51.412;5.436;2023-08-17T04:10:33;4.70;;;2.40;;
74044;SDS011;62389;51.412;5.436;2023-08-17T04:12:58;5.85;;;2.40;;
74044;SDS011;62389;51.412;5.436;2023-08-17T04:15:23;6.82;;;2.80;;
74044;SDS011;62389;51.412;5.436;2023-08-17T04:17:49;4.28;;;2.35;;
74044;SDS011;62389;51.412;5.436;2023-08-17T04:20:14;4.28;;;2.03;;
74044;SDS011;62389;51.412;5.436;2023-08-17T04:22:40;5.05;;;2.30;;
74044;SDS011;62389;51.412;5.436;2023-08-17T04:25:05;6.93;;;2.35;;
74044;SDS011;62389;51.412;5.436;2023-08-17T04:29:57;8.07;;;2.40;;
74044;SDS011;62389;51.412;5.436;2023-08-17T04:32:22;4.07;;;1.90;;
74044;SDS011;62389;51.412;5.436;2023-08-17T04:34:48;7.13;;;2.38;;
74044;SDS011;62389;51.412;5.436;2023-08-17T04:37:13;4.78;;;2.00;;
74044;SDS011;62389;51.412;5.436;2023-08-17T04:39:39;4.20;;;2.20;;
74044;SDS011;62389;51.412;5.436;2023-08-17T04:42:05;5.18;;;2.50;;
74044;SDS011;62389;51.412;5.436;2023-08-17T04:44:31;5.40;;;2.28;;
74044;SDS011;62389;51.412;5.436;2023-08-17T04:46:56;4.10;;;2.08;;
74044;SDS011;62389;51.412;5.436;2023-08-17T04:49:22;5.25;;;2.25;;
74044;SDS011;62389;51.412;5.436;2023-08-17T04:51:48;4.25;;;2.03;;
74044;SDS011;62389;51.412;5.436;2023-08-17T04:54:13;4.40;;;2.05;;
74044;SDS011;62389;51.412;5.436;2023-08-17T04:56:38;5.88;;;2.10;;
74044;SDS011;62389;51.412;5.436;2023-08-17T04:59:04;4.35;;;2.00;;
74044;SDS011;62389;51.412;5.436;2023-08-17T05:01:29;3.22;;;1.73;;
74044;SDS011;62389;51.412;5.436;2023-08-17T05:03:54;3.63;;;2.20;;
74044;SDS011;62389;51.412;5.436;2023-08-17T05:06:20;5.95;;;2.03;;
74044;SDS011;62389;51.412;5.436;2023-08-17T05:08:45;3.25;;;2.10;;
74044;SDS011;62389;51.412;5.436;2023-08-17T05:11:10;3.65;;;1.98;;
74044;SDS011;62389;51.412;5.436;2023-08-17T05:13:36;4.50;;;2.28;;
74044;SDS011;62389;51.412;5.436;2023-08-17T05:16:01;8.05;;;2.20;;
74044;SDS011;62389;51.412;5.436;2023-08-17T05:18:26;4.38;;;2.08;;
74044;SDS011;62389;51.412;5.436;2023-08-17T05:20:52;3.63;;;2.03;;
74044;SDS011;62389;51.412;5.436;2023-08-17T05:23:17;3.47;;;2.20;;
74044;SDS011;62389;51.412;5.436;2023-08-17T05:25:45;3.88;;;2.25;;
74044;SDS011;62389;51.412;5.436;2023-08-17T05:28:11;5.10;;;2.30;;
74044;SDS011;62389;51.412;5.436;2023-08-17T05:30:36;4.22;;;2.10;;
74044;SDS011;62389;51.412;5.436;2023-08-17T05:33:02;7.10;;;2.25;;
74044;SDS011;62389;51.412;5.436;2023-08-17T05:35:27;6.57;;;2.17;;
74044;SDS011;62389;51.412;5.436;2023-08-17T05:37:53;4.80;;;2.58;;
74044;SDS011;62389;51.412;5.436;2023-08-17T05:40:18;5.55;;;2.30;;
74044;SDS011;62389;51.412;5.436;2023-08-17T05:42:44;6.88;;;2.50;;
74044;SDS011;62389;51.412;5.436;2023-08-17T05:45:09;4.18;;;2.40;;
74044;SDS011;62389;51.412;5.436;2023-08-17T05:47:34;7.32;;;2.45;;
74044;SDS011;62389;51.412;5.436;2023-08-17T05:50:01;6.82;;;2.15;;
74044;SDS011;62389;51.412;5.436;2023-08-17T05:52:26;4.95;;;2.53;;
74044;SDS011;62389;51.412;5.436;2023-08-17T05:54:52;3.75;;;2.22;;
74044;SDS011;62389;51.412;5.436;2023-08-17T05:57:17;6.18;;;2.28;;
74044;SDS011;62389;51.412;5.436;2023-08-17T05:59:42;6.32;;;2.30;;
74044;SDS011;62389;51.412;5.436;2023-08-17T06:02:08;6.13;;;2.42;;
74044;SDS011;62389;51.412;5.436;2023-08-17T06:04:33;4.90;;;2.67;;
74044;SDS011;62389;51.412;5.436;2023-08-17T06:06:58;5.75;;;2.53;;
74044;SDS011;62389;51.412;5.436;2023-08-17T06:09:24;5.20;;;2.30;;
74044;SDS011;62389;51.412;5.436;2023-08-17T06:11:49;6.20;;;2.30;;
74044;SDS011;62389;51.412;5.436;2023-08-17T06:14:15;4.57;;;2.50;;
74044;SDS011;62389;51.412;5.436;2023-08-17T06:16:40;5.25;;;2.35;;
74044;SDS011;62389;51.412;5.436;2023-08-17T06:19:05;5.38;;;2.70;;
74044;SDS011;62389;51.412;5.436;2023-08-17T06:21:31;8.07;;;2.40;;
74044;SDS011;62389;51.412;5.436;2023-08-17T06:23:56;5.85;;;2.85;;
74044;SDS011;62389;51.412;5.436;2023-08-17T06:26:21;4.43;;;2.55;;
74044;SDS011;62389;51.412;5.436;2023-08-17T06:28:47;5.75;;;2.60;;
74044;SDS011;62389;51.412;5.436;2023-08-17T06:31:14;5.82;;;2.58;;
74044;SDS011;62389;51.412;5.436;2023-08-17T06:33:40;4.18;;;2.50;;
74044;SDS011;62389;51.412;5.436;2023-08-17T06:36:05;6.50;;;3.22;;
74044;SDS011;62389;51.412;5.436;2023-08-17T06:38:30;6.53;;;2.97;;
74044;SDS011;62389;51.412;5.436;2023-08-17T06:40:56;5.78;;;3.03;;
74044;SDS011;62389;51.412;5.436;2023-08-17T06:43:21;5.90;;;2.97;;
74044;SDS011;62389;51.412;5.436;2023-08-17T06:45:46;10.80;;;3.35;;
74044;SDS011;62389;51.412;5.436;2023-08-17T06:48:12;5.50;;;2.97;;
74044;SDS011;62389;51.412;5.436;2023-08-17T06:50:37;6.38;;;3.33;;
74044;SDS011;62389;51.412;5.436;2023-08-17T06:53:03;6.93;;;3.05;;
74044;SDS011;62389;51.412;5.436;2023-08-17T06:57:55;6.57;;;3.13;;
74044;SDS011;62389;51.412;5.436;2023-08-17T07:00:22;7.18;;;3.00;;
74044;SDS011;62389;51.412;5.436;2023-08-17T07:02:47;6.57;;;2.95;;
74044;SDS011;62389;51.412;5.436;2023-08-17T07:05:16;7.22;;;3.10;;
74044;SDS011;62389;51.412;5.436;2023-08-17T07:07:43;4.80;;;3.30;;
74044;SDS011;62389;51.412;5.436;2023-08-17T07:10:09;4.90;;;3.00;;
74044;SDS011;62389;51.412;5.436;2023-08-17T07:12:38;6.68;;;3.50;;
74044;SDS011;62389;51.412;5.436;2023-08-17T07:15:05;7.65;;;3.63;;
74044;SDS011;62389;51.412;5.436;2023-08-17T07:17:31;6.30;;;3.00;;
74044;SDS011;62389;51.412;5.436;2023-08-17T07:19:58;10.07;;;3.47;;
74044;SDS011;62389;51.412;5.436;2023-08-17T07:22:24;6.88;;;3.30;;
74044;SDS011;62389;51.412;5.436;2023-08-17T07:24:49;6.50;;;3.20;;
74044;SDS011;62389;51.412;5.436;2023-08-17T07:27:15;5.78;;;3.35;;
74044;SDS011;62389;51.412;5.436;2023-08-17T07:29:40;8.30;;;3.60;;
74044;SDS011;62389;51.412;5.436;2023-08-17T07:32:05;7.65;;;3.30;;
74044;SDS011;62389;51.412;5.436;2023-08-17T07:34:31;6.50;;;3.70;;
74044;SDS011;62389;51.412;5.436;2023-08-17T07:36:56;5.32;;;3.17;;
74044;SDS011;62389;51.412;5.436;2023-08-17T07:39:22;7.05;;;3.30;;
74044;SDS011;62389;51.412;5.436;2023-08-17T07:41:47;7.57;;;3.65;;
74044;SDS011;62389;51.412;5.436;2023-08-17T07:44:13;5.53;;;3.05;;
74044;SDS011;62389;51.412;5.436;2023-08-17T07:46:38;7.90;;;3.58;;
74044;SDS011;62389;51.412;5.436;2023-08-17T07:49:04;6.70;;;3.88;;
74044;SDS011;62389;51.412;5.436;2023-08-17T07:51:29;7.40;;;3.38;;
74044;SDS011;62389;51.412;5.436;2023-08-17T07:53:56;6.50;;;3.63;;
74044;SDS011;62389;51.412;5.436;2023-08-17T07:56:22;6.32;;;3.90;;
74044;SDS011;62389;51.412;5.436;2023-08-17T07:58:47;9.23;;;3.80;;
74044;SDS011;62389;51.412;5.436;2023-08-17T08:01:13;5.75;;;3.40;;
74044;SDS011;62389;51.412;5.436;2023-08-17T08:03:38;6.68;;;3.42;;
74044;SDS011;62389;51.412;5.436;2023-08-17T08:06:03;6.05;;;3.25;;
74044;SDS011;62389;51.412;5.436;2023-08-17T08:08:29;8.65;;;3.60;;
74044;SDS011;62389;51.412;5.436;2023-08-17T08:10:54;7.35;;;3.65;;
74044;SDS011;62389;51.412;5.436;2023-08-17T08:13:20;10.40;;;3.72;;
74044;SDS011;62389;51.412;5.436;2023-08-17T08:15:45;8.15;;;4.32;;
74044;SDS011;62389;51.412;5.436;2023-08-17T08:18:11;8.07;;;3.72;;
74044;SDS011;62389;51.412;5.436;2023-08-17T08:20:36;5.53;;;3.40;;
74044;SDS011;62389;51.412;5.436;2023-08-17T08:23:01;7.03;;;3.80;;
74044;SDS011;62389;51.412;5.436;2023-08-17T08:25:28;6.05;;;3.70;;
74044;SDS011;62389;51.412;5.436;2023-08-17T08:27:53;8.18;;;3.83;;
74044;SDS011;62389;51.412;5.436;2023-08-17T08:30:19;8.25;;;4.45;;
74044;SDS011;62389;51.412;5.436;2023-08-17T08:32:44;7.82;;;4.43;;
74044;SDS011;62389;51.412;5.436;2023-08-17T08:35:09;7.03;;;3.92;;
74044;SDS011;62389;51.412;5.436;2023-08-17T08:37:35;8.48;;;4.38;;
74044;SDS011;62389;51.412;5.436;2023-08-17T08:40:00;9.95;;;4.38;;
74044;SDS011;62389;51.412;5.436;2023-08-17T08:42:26;7.55;;;4.68;;
74044;SDS011;62389;51.412;5.436;2023-08-17T08:44:51;8.90;;;4.45;;
74044;SDS011;62389;51.412;5.436;2023-08-17T08:47:17;8.98;;;4.70;;
74044;SDS011;62389;51.412;5.436;2023-08-17T08:49:50;6.32;;;4.43;;
74044;SDS011;62389;51.412;5.436;2023-08-17T08:52:26;9.23;;;5.05;;
74044;SDS011;62389;51.412;5.436;2023-08-17T08:54:57;6.88;;;4.40;;
74044;SDS011;62389;51.412;5.436;2023-08-17T08:57:24;6.70;;;3.97;;
74044;SDS011;62389;51.412;5.436;2023-08-17T08:59:53;8.23;;;4.65;;
74044;SDS011;62389;51.412;5.436;2023-08-17T09:02:19;8.32;;;5.03;;
74044;SDS011;62389;51.412;5.436;2023-08-17T09:04:44;9.05;;;4.40;;
74044;SDS011;62389;51.412;5.436;2023-08-17T09:07:11;15.20;;;4.15;;
74044;SDS011;62389;51.412;5.436;2023-08-17T09:09:37;8.80;;;4.82;;
74044;SDS011;62389;51.412;5.436;2023-08-17T09:12:03;8.65;;;4.53;;
74044;SDS011;62389;51.412;5.436;2023-08-17T09:14:32;8.75;;;4.20;;
74044;SDS011;62389;51.412;5.436;2023-08-17T09:16:57;7.25;;;4.47;;
74044;SDS011;62389;51.412;5.436;2023-08-17T09:19:23;9.20;;;4.63;;
74044;SDS011;62389;51.412;5.436;2023-08-17T09:21:50;9.38;;;5.18;;
74044;SDS011;62389;51.412;5.436;2023-08-17T09:24:16;9.63;;;4.95;;
74044;SDS011;62389;51.412;5.436;2023-08-17T09:26:41;9.50;;;4.68;;
74044;SDS011;62389;51.412;5.436;2023-08-17T09:29:16;10.20;;;4.63;;
74044;SDS011;62389;51.412;5.436;2023-08-17T09:31:43;9.00;;;5.15;;
74044;SDS011;62389;51.412;5.436;2023-08-17T09:34:08;13.25;;;5.28;;
74044;SDS011;62389;51.412;5.436;2023-08-17T09:36:35;11.15;;;5.35;;
74044;SDS011;62389;51.412;5.436;2023-08-17T09:39:01;12.15;;;5.00;;
74044;SDS011;62389;51.412;5.436;2023-08-17T09:41:26;11.95;;;5.35;;
74044;SDS011;62389;51.412;5.436;2023-08-17T09:43:52;9.65;;;4.90;;
74044;SDS011;62389;51.412;5.436;2023-08-17T09:46:19;10.65;;;5.75;;
74044;SDS011;62389;51.412;5.436;2023-08-17T09:48:45;11.52;;;5.25;;
74044;SDS011;62389;51.412;5.436;2023-08-17T09:51:14;12.43;;;5.63;;
74044;SDS011;62389;51.412;5.436;2023-08-17T09:53:40;8.65;;;5.03;;
74044;SDS011;62389;51.412;5.436;2023-08-17T09:56:06;10.02;;;5.15;;
74044;SDS011;62389;51.412;5.436;2023-08-17T09:58:35;9.85;;;5.40;;
74044;SDS011;62389;51.412;5.436;2023-08-17T10:01:03;10.32;;;5.65;;
74044;SDS011;62389;51.412;5.436;2023-08-17T10:03:30;11.50;;;5.88;;
74044;SDS011;62389;51.412;5.436;2023-08-17T10:05:59;14.15;;;5.65;;
74044;SDS011;62389;51.412;5.436;2023-08-17T10:08:30;12.52;;;5.60;;
74044;SDS011;62389;51.412;5.436;2023-08-17T10:10:56;11.60;;;5.90;;
74044;SDS011;62389;51.412;5.436;2023-08-17T10:13:31;14.35;;;6.68;;
74044;SDS011;62389;51.412;5.436;2023-08-17T10:16:02;11.82;;;6.13;;
74044;SDS011;62389;51.412;5.436;2023-08-17T10:21:24;13.95;;;6.32;;
74044;SDS011;62389;51.412;5.436;2023-08-17T10:23:55;12.32;;;6.28;;
74044;SDS011;62389;51.412;5.436;2023-08-17T10:26:20;11.40;;;5.90;;
74044;SDS011;62389;51.412;5.436;2023-08-17T10:28:47;11.82;;;6.38;;
74044;SDS011;62389;51.412;5.436;2023-08-17T10:31:13;15.57;;;7.07;;
74044;SDS011;62389;51.412;5.436;2023-08-17T10:33:38;13.82;;;6.18;;
74044;SDS011;62389;51.412;5.436;2023-08-17T10:36:07;12.50;;;6.80;;
74044;SDS011;62389;51.412;5.436;2023-08-17T10:38:33;17.90;;;7.10;;
74044;SDS011;62389;51.412;5.436;2023-08-17T10:41:11;12.38;;;6.35;;
74044;SDS011;62389;51.412;5.436;2023-08-17T10:43:53;13.82;;;6.55;;
74044;SDS011;62389;51.412;5.436;2023-08-17T10:46:19;12.52;;;7.05;;
74044;SDS011;62389;51.412;5.436;2023-08-17T10:48:45;16.60;;;7.13;;
74044;SDS011;62389;51.412;5.436;2023-08-17T10:51:10;11.57;;;6.70;;
74044;SDS011;62389;51.412;5.436;2023-08-17T10:53:40;13.13;;;6.90;;
74044;SDS011;62389;51.412;5.436;2023-08-17T10:56:10;12.98;;;6.45;;
74044;SDS011;62389;51.412;5.436;2023-08-17T10:58:37;11.40;;;6.30;;
74044;SDS011;62389;51.412;5.436;2023-08-17T11:01:03;11.80;;;6.97;;
74044;SDS011;62389;51.412;5.436;2023-08-17T11:03:28;13.63;;;7.00;;
74044;SDS011;62389;51.412;5.436;2023-08-17T11:05:57;15.73;;;6.60;;
74044;SDS011;62389;51.412;5.436;2023-08-17T11:13:25;11.00;;;6.55;;
74044;SDS011;62389;51.412;5.436;2023-08-17T11:15:53;13.55;;;6.88;;
74044;SDS011;62389;51.412;5.436;2023-08-17T11:18:18;14.27;;;6.70;;
74044;SDS011;62389;51.412;5.436;2023-08-17T11:20:43;13.40;;;6.88;;
74044;SDS011;62389;51.412;5.436;2023-08-17T11:23:09;17.45;;;7.13;;
74044;SDS011;62389;51.412;5.436;2023-08-17T11:25:36;16.65;;;7.63;;
74044;SDS011;62389;51.412;5.436;2023-08-17T11:28:02;12.88;;;7.13;;
74044;SDS011;62389;51.412;5.436;2023-08-17T11:30:28;16.23;;;7.38;;
74044;SDS011;62389;51.412;5.436;2023-08-17T11:32:54;17.75;;;7.53;;
74044;SDS011;62389;51.412;5.436;2023-08-17T11:35:21;13.35;;;7.05;;
74044;SDS011;62389;51.412;5.436;2023-08-17T11:37:47;14.57;;;7.72;;
74044;SDS011;62389;51.412;5.436;2023-08-17T11:40:16;13.07;;;7.78;;
74044;SDS011;62389;51.412;5.436;2023-08-17T11:42:43;19.77;;;7.70;;
74044;SDS011;62389;51.412;5.436;2023-08-17T11:45:09;13.00;;;7.60;;
74044;SDS011;62389;51.412;5.436;2023-08-17T11:47:35;14.30;;;7.97;;
74044;SDS011;62389;51.412;5.436;2023-08-17T11:50:02;16.92;;;7.38;;
74044;SDS011;62389;51.412;5.436;2023-08-17T11:52:29;13.23;;;7.10;;
74044;SDS011;62389;51.412;5.436;2023-08-17T11:54:57;17.02;;;8.07;;
74044;SDS011;62389;51.412;5.436;2023-08-17T11:57:23;13.57;;;7.53;;
74044;SDS011;62389;51.412;5.436;2023-08-17T11:59:52;15.73;;;7.20;;
74044;SDS011;62389;51.412;5.436;2023-08-17T12:02:19;14.40;;;7.57;;
74044;SDS011;62389;51.412;5.436;2023-08-17T12:04:44;16.63;;;7.35;;
74044;SDS011;62389;51.412;5.436;2023-08-17T12:07:10;11.30;;;7.45;;
74044;SDS011;62389;51.412;5.436;2023-08-17T12:09:36;15.18;;;7.78;;
74044;SDS011;62389;51.412;5.436;2023-08-17T12:12:01;16.45;;;7.32;;
74044;SDS011;62389;51.412;5.436;2023-08-17T12:14:27;12.15;;;7.60;;
74044;SDS011;62389;51.412;5.436;2023-08-17T12:16:55;15.30;;;7.68;;
74044;SDS011;62389;51.412;5.436;2023-08-17T12:19:21;16.17;;;7.25;;
74044;SDS011;62389;51.412;5.436;2023-08-17T12:21:49;17.90;;;8.18;;
74044;SDS011;62389;51.412;5.436;2023-08-17T12:24:14;11.63;;;7.25;;
74044;SDS011;62389;51.412;5.436;2023-08-17T12:26:41;15.35;;;8.07;;
74044;SDS011;62389;51.412;5.436;2023-08-17T12:29:08;16.15;;;8.05;;
74044;SDS011;62389;51.412;5.436;2023-08-17T12:31:34;13.48;;;7.80;;
74044;SDS011;62389;51.412;5.436;2023-08-17T12:33:59;16.23;;;8.10;;
74044;SDS011;62389;51.412;5.436;2023-08-17T12:36:25;13.20;;;7.28;;
74044;SDS011;62389;51.412;5.436;2023-08-17T12:38:50;13.23;;;7.35;;
74044;SDS011;62389;51.412;5.436;2023-08-17T12:41:15;14.55;;;7.85;;
74044;SDS011;62389;51.412;5.436;2023-08-17T12:46:07;14.93;;;8.32;;
74044;SDS011;62389;51.412;5.436;2023-08-17T12:48:33;16.35;;;7.97;;
74044;SDS011;62389;51.412;5.436;2023-08-17T12:50:58;15.73;;;8.45;;
74044;SDS011;62389;51.412;5.436;2023-08-17T12:53:23;12.52;;;7.47;;
74044;SDS011;62389;51.412;5.436;2023-08-17T12:55:49;14.45;;;8.98;;
74044;SDS011;62389;51.412;5.436;2023-08-17T12:58:14;13.43;;;7.75;;
74044;SDS011;62389;51.412;5.436;2023-08-17T13:00:40;15.93;;;8.70;;
74044;SDS011;62389;51.412;5.436;2023-08-17T13:03:05;13.30;;;7.43;;
74044;SDS011;62389;51.412;5.436;2023-08-17T13:05:31;13.75;;;7.78;;
74044;SDS011;62389;51.412;5.436;2023-08-17T13:07:57;12.57;;;7.70;;
74044;SDS011;62389;51.412;5.436;2023-08-17T13:10:22;13.13;;;8.32;;
74044;SDS011;62389;51.412;5.436;2023-08-17T13:12:48;17.63;;;8.40;;
74044;SDS011;62389;51.412;5.436;2023-08-17T13:15:13;12.02;;;7.88;;
74044;SDS011;62389;51.412;5.436;2023-08-17T13:17:38;11.77;;;7.78;;
74044;SDS011;62389;51.412;5.436;2023-08-17T13:20:04;12.10;;;7.53;;
74044;SDS011;62389;51.412;5.436;2023-08-17T13:22:31;12.13;;;7.70;;
74044;SDS011;62389;51.412;5.436;2023-08-17T13:24:56;13.07;;;8.10;;
74044;SDS011;62389;51.412;5.436;2023-08-17T13:27:22;17.77;;;8.05;;
74044;SDS011;62389;51.412;5.436;2023-08-17T13:29:47;13.55;;;7.13;;
74044;SDS011;62389;51.412;5.436;2023-08-17T13:32:13;13.80;;;7.78;;
74044;SDS011;62389;51.412;5.436;2023-08-17T13:34:38;9.88;;;6.50;;
74044;SDS011;62389;51.412;5.436;2023-08-17T13:37:03;15.25;;;7.85;;
74044;SDS011;62389;51.412;5.436;2023-08-17T13:39:29;13.15;;;8.25;;
74044;SDS011;62389;51.412;5.436;2023-08-17T13:41:54;14.55;;;7.53;;
74044;SDS011;62389;51.412;5.436;2023-08-17T13:44:19;18.70;;;8.10;;
74044;SDS011;62389;51.412;5.436;2023-08-17T13:46:45;12.32;;;7.70;;
74044;SDS011;62389;51.412;5.436;2023-08-17T13:49:10;14.45;;;7.45;;
74044;SDS011;62389;51.412;5.436;2023-08-17T13:51:35;13.13;;;8.43;;
74044;SDS011;62389;51.412;5.436;2023-08-17T13:54:01;11.77;;;7.75;;
74044;SDS011;62389;51.412;5.436;2023-08-17T13:56:26;11.88;;;7.40;;
74044;SDS011;62389;51.412;5.436;2023-08-17T13:58:52;12.23;;;7.68;;
74044;SDS011;62389;51.412;5.436;2023-08-17T14:01:17;12.93;;;8.27;;
74044;SDS011;62389;51.412;5.436;2023-08-17T14:03:43;13.15;;;8.50;;
74044;SDS011;62389;51.412;5.436;2023-08-17T14:06:09;12.95;;;7.90;;
74044;SDS011;62389;51.412;5.436;2023-08-17T14:08:35;16.45;;;9.40;;
74044;SDS011;62389;51.412;5.436;2023-08-17T14:11:00;13.50;;;8.27;;
74044;SDS011;62389;51.412;5.436;2023-08-17T14:13:25;12.95;;;8.85;;
74044;SDS011;62389;51.412;5.436;2023-08-17T14:15:51;16.33;;;8.52;;
74044;SDS011;62389;51.412;5.436;2023-08-17T14:18:16;11.18;;;6.85;;
74044;SDS011;62389;51.412;5.436;2023-08-17T14:20:42;13.50;;;8.93;;
74044;SDS011;62389;51.412;5.436;2023-08-17T14:23:07;15.75;;;8.07;;
74044;SDS011;62389;51.412;5.436;2023-08-17T14:25:34;12.70;;;8.60;;
74044;SDS011;62389;51.412;5.436;2023-08-17T14:27:59;14.77;;;8.85;;
74044;SDS011;62389;51.412;5.436;2023-08-17T14:30:24;17.08;;;8.77;;
74044;SDS011;62389;51.412;5.436;2023-08-17T14:32:51;15.90;;;9.45;;
74044;SDS011;62389;51.412;5.436;2023-08-17T14:35:16;13.93;;;9.25;;
74044;SDS011;62389;51.412;5.436;2023-08-17T14:37:41;14.27;;;9.15;;
74044;SDS011;62389;51.412;5.436;2023-08-17T14:40:07;16.92;;;9.20;;
74044;SDS011;62389;51.412;5.436;2023-08-17T14:42:33;13.80;;;9.05;;
74044;SDS011;62389;51.412;5.436;2023-08-17T14:44:58;13.40;;;8.88;;
74044;SDS011;62389;51.412;5.436;2023-08-17T14:47:23;15.63;;;8.75;;
74044;SDS011;62389;51.412;5.436;2023-08-17T14:49:49;12.63;;;8.52;;
74044;SDS011;62389;51.412;5.436;2023-08-17T14:52:14;14.23;;;9.45;;
74044;SDS011;62389;51.412;5.436;2023-08-17T14:54:40;16.70;;;9.73;;
74044;SDS011;62389;51.412;5.436;2023-08-17T14:57:05;16.15;;;10.00;;
74044;SDS011;62389;51.412;5.436;2023-08-17T14:59:30;15.70;;;9.20;;
74044;SDS011;62389;51.412;5.436;2023-08-17T15:01:56;14.05;;;9.38;;
74044;SDS011;62389;51.412;5.436;2023-08-17T15:04:22;17.60;;;9.57;;
74044;SDS011;62389;51.412;5.436;2023-08-17T15:06:47;15.57;;;9.93;;